KAIK/AIK METAR and TAF weather

Enter ICAO airport designator
Station Type Date Time Source
KAIK METAR 2020/02/24 23:55 UTC NOAA

KAIK 242355Z AUTO 05006KT 5SM -DZ BR OVC004 09/08 A3000 RMK AO2 T00870081 10112 20087 401190083 60013


Station Type Date Time Source
KAIK Decoded METAR 2020/02/24 23:55 UTC NOAA

Station name not available
Feb 24, 2020 - 06:55 PM EST / 2020.02.24 2355 UTC
Wind: from the NE (050 degrees) at 7 MPH (6 KT):0
Visibility: 5 mile(s):0
Sky conditions: overcast
Weather: light drizzle; mist
Temperature: 47.7 F (8.7 C)
Dew Point: 46.6 F (8.1 C)
Relative Humidity: 96%
Pressure (altimeter): 30 in. Hg (1015 hPa)
ob: KAIK 242355Z AUTO 05006KT 5SM -DZ BR OVC004 09/08 A3000 RMK AO2 T00870081 10112 20087 401190083 60013
cycle: 0

Station Type Date Time Source
KAIK TAF UTC NOAA

Error!

Example: see airport list